Private Wetterstation Wechselburg
Wetterdaten: Woche 10.10.11 - 16.10.11 (KW41)
Datum Zeit Temp. +2m Bodentemp. Temp.+5cm Temp. Wind Windchill X Diff Temp. Feuchte +2m Feuchte +5cm Sonnenschein Luftdruck Regen Wind Richtung Sonnenschein UV Taupunkt Windchill Windben
10.10.2011 00:00 8,2 C 15,0 C 8,4 C 8,2 C 7,9 C 0,0 C 77 % 79 % 0 % 1017,4 hPa 0,0 l/m 2,9 km/h (1 Bft) W-SW 0,00 h 0,0 UV-I 4,4 C 7,9 C 4,2 km/h (1 Bft)
10.10.2011 01:00 8,3 C 15,0 C 8,5 C 8,2 C 7,8 C 0,0 C 78 % 80 % 0 % 1016,8 hPa 0,0 l/m 3,4 km/h (1 Bft) S-SO 0,00 h 0,0 UV-I 4,7 C 7,8 C 5,1 km/h (1 Bft)
10.10.2011 02:00 8,1 C 15,2 C 8,3 C 7,8 C 7,4 C 0,0 C 81 % 83 % 0 % 1016,1 hPa 0,0 l/m 3,5 km/h (1 Bft) S 0,00 h 0,0 UV-I 5,0 C 7,4 C 4,9 km/h (1 Bft)
10.10.2011 03:00 8,2 C 15,1 C 8,3 C 7,9 C 7,5 C 0,0 C 82 % 84 % 0 % 1015,1 hPa 0,0 l/m 5,0 km/h (1 Bft) S-SO 0,00 h 0,0 UV-I 5,3 C 7,0 C 7,0 km/h (2 Bft)
10.10.2011 04:00 7,7 C 15,4 C 7,9 C 7,4 C 6,7 C 0,0 C 86 % 88 % 0 % 1014,5 hPa 0,0 l/m 5,0 km/h (1 Bft) W-SW 0,00 h 0,0 UV-I 5,6 C 6,1 C 6,7 km/h (2 Bft)
10.10.2011 05:00 7,5 C 15,6 C 7,6 C 7,3 C 7,0 C 0,0 C 89 % 91 % 0 % 1013,7 hPa 0,7 l/m 4,2 km/h (1 Bft) S 0,00 h 0,0 UV-I 5,8 C 6,8 C 5,5 km/h (1 Bft)
10.10.2011 06:00 7,6 C 15,5 C 7,7 C 7,5 C 7,2 C 0,0 C 91 % 93 % 0 % 1013,2 hPa 0,7 l/m 4,3 km/h (1 Bft) SW 0,00 h 0,0 UV-I 6,2 C 7,0 C 8,1 km/h (2 Bft)
10.10.2011 07:00 7,9 C 15,5 C 8,1 C 8,0 C 7,9 C 0,1 C 91 % 94 % 1 % 1013,1 hPa 0,0 l/m 3,6 km/h (1 Bft) W-SW 0,00 h 0,0 UV-I 6,5 C 7,9 C 5,9 km/h (2 Bft)
10.10.2011 08:00 8,6 C 15,6 C 8,7 C 8,8 C 8,8 C 0,2 C 92 % 94 % 5 % 1013,4 hPa 0,0 l/m 3,9 km/h (1 Bft) S 0,00 h 0,0 UV-I 7,3 C 8,8 C 6,6 km/h (2 Bft)
10.10.2011 09:00 9,5 C 15,5 C 9,4 C 9,7 C 9,7 C 0,2 C 92 % 94 % 5 % 1013,1 hPa 0,0 l/m 3,8 km/h (1 Bft) W-SW 0,00 h 0,0 UV-I 8,3 C 9,6 C 6,4 km/h (2 Bft)
10.10.2011 10:00 10,2 C 15,6 C 10,0 C 10,8 C 10,8 C 0,7 C 91 % 95 % 18 % 1013,3 hPa 0,0 l/m 2,0 km/h (1 Bft) S 0,00 h 0,0 UV-I 8,8 C 10,8 C 2,9 km/h (1 Bft)
10.10.2011 11:00 11,1 C 15,6 C 10,8 C 11,7 C 11,7 C 0,6 C 91 % 95 % 16 % 1013,4 hPa 0,0 l/m 1,3 km/h (1 Bft) S 0,00 h 0,0 UV-I 9,7 C 11,7 C 1,7 km/h (1 Bft)
10.10.2011 12:00 11,5 C 15,8 C 11,2 C 11,8 C 11,8 C 0,3 C 91 % 95 % 8 % 1013,2 hPa 0,7 l/m 1,8 km/h (1 Bft) SO 0,00 h 0,0 UV-I 10,1 C 11,8 C 2,1 km/h (1 Bft)
10.10.2011 13:00 12,0 C 15,9 C 11,7 C 12,2 C 12,2 C 0,2 C 92 % 95 % 6 % 1012,5 hPa 2,7 l/m 2,6 km/h (1 Bft) N-NO 0,00 h 0,0 UV-I 10,7 C 12,2 C 3,6 km/h (1 Bft)
10.10.2011 14:00 12,5 C 16,0 C 12,2 C 12,8 C 12,8 C 0,3 C 92 % 95 % 8 % 1011,9 hPa 0,7 l/m 3,3 km/h (1 Bft) S 0,00 h 0,0 UV-I 11,2 C 12,8 C 6,5 km/h (2 Bft)
10.10.2011 15:00 13,4 C 16,0 C 13,0 C 13,9 C 13,9 C 0,5 C 92 % 95 % 14 % 1011,4 hPa 0,0 l/m 3,2 km/h (1 Bft) SW 0,00 h 0,0 UV-I 12,1 C 13,9 C 5,6 km/h (1 Bft)
10.10.2011 16:00 14,6 C 16,1 C 13,7 C 15,6 C 15,6 C 1,0 C 89 % 95 % 26 % 1011,1 hPa 0,0 l/m 4,2 km/h (1 Bft) S-SW 0,00 h 0,0 UV-I 12,8 C 15,6 C 6,1 km/h (2 Bft)
10.10.2011 17:00 15,2 C 16,1 C 14,2 C 16,0 C 16,0 C 0,8 C 87 % 95 % 20 % 1010,8 hPa 0,0 l/m 6,0 km/h (2 Bft) W-SW 0,00 h 0,0 UV-I 13,1 C 16,0 C 8,1 km/h (2 Bft)
10.10.2011 18:00 15,6 C 16,1 C 14,5 C 15,7 C 15,7 C 0,1 C 85 % 94 % 2 % 1010,9 hPa 0,0 l/m 5,5 km/h (1 Bft) W-SW 0,00 h 0,0 UV-I 13,1 C 15,7 C 11,8 km/h (2 Bft)
10.10.2011 19:00 15,7 C 16,2 C 14,6 C 15,7 C 15,7 C 0,1 C 85 % 94 % 0 % 1011,6 hPa 0,0 l/m 4,3 km/h (1 Bft) W-SW 0,00 h 0,0 UV-I 13,2 C 15,7 C 5,5 km/h (1 Bft)
10.10.2011 20:00 15,8 C 16,4 C 14,7 C 15,9 C 15,9 C 0,1 C 86 % 94 % 0 % 1011,7 hPa 0,0 l/m 4,8 km/h (1 Bft) S 0,00 h 0,0 UV-I 13,4 C 15,9 C 6,2 km/h (2 Bft)
10.10.2011 21:00 16,3 C 16,5 C 15,2 C 16,4 C 16,4 C 0,2 C 85 % 94 % 0 % 1012,3 hPa 0,0 l/m 6,7 km/h (2 Bft) W-SW 0,00 h 0,0 UV-I 13,7 C 16,4 C 8,6 km/h (2 Bft)
10.10.2011 22:00 16,8 C 16,6 C 15,8 C 16,8 C 16,7 C 0,0 C 83 % 93 % 0 % 1012,4 hPa 0,0 l/m 10,0 km/h (2 Bft) W-SW 0,00 h 0,0 UV-I 13,8 C 16,7 C 13,5 km/h (3 Bft)
10.10.2011 23:00 16,4 C 16,8 C 15,7 C 16,3 C 16,1 C 0,0 C 85 % 93 % 0 % 1012,6 hPa 0,0 l/m 9,4 km/h (2 Bft) SW 0,00 h 0,0 UV-I 13,8 C 16,1 C 12,5 km/h (3 Bft)
11.10.2011 00:00 16,0 C 16,9 C 15,6 C 16,0 C 15,9 C 0,0 C 85 % 92 % 0 % 1012,7 hPa 0,0 l/m 11,2 km/h (2 Bft) W-SW 0,00 h 0,0 UV-I 13,5 C 15,9 C 17,5 km/h (3 Bft)
11.10.2011 01:00 16,3 C 17,0 C 15,8 C 16,2 C 16,1 C 0,0 C 82 % 89 % 0 % 1012,7 hPa 0,0 l/m 12,2 km/h (2 Bft) SW 0,00 h 0,0 UV-I 13,3 C 16,1 C 18,2 km/h (3 Bft)
11.10.2011 02:00 16,3 C 17,1 C 15,9 C 16,3 C 16,2 C 0,0 C 81 % 86 % 0 % 1013,0 hPa 0,0 l/m 11,3 km/h (2 Bft) W-SW 0,00 h 0,0 UV-I 13,1 C 16,2 C 13,1 km/h (3 Bft)
11.10.2011 03:00 16,3 C 17,2 C 15,8 C 16,2 C 16,1 C 0,0 C 81 % 85 % 0 % 1013,0 hPa 0,0 l/m 11,6 km/h (2 Bft) S-SW 0,00 h 0,0 UV-I 13,0 C 16,1 C 14,1 km/h (3 Bft)
11.10.2011 04:00 16,1 C 17,2 C 15,7 C 16,1 C 15,9 C 0,0 C 81 % 85 % 0 % 1012,5 hPa 0,0 l/m 11,1 km/h (2 Bft) W-SW 0,00 h 0,0 UV-I 12,7 C 15,9 C 13,7 km/h (3 Bft)
11.10.2011 05:00 15,9 C 17,3 C 15,6 C 16,0 C 15,9 C 0,0 C 80 % 84 % 0 % 1012,6 hPa 0,0 l/m 10,1 km/h (2 Bft) SW 0,00 h 0,0 UV-I 12,5 C 15,9 C 12,8 km/h (3 Bft)
11.10.2011 06:00 15,9 C 17,3 C 15,4 C 16,0 C 15,9 C 0,1 C 81 % 85 % 0 % 1012,4 hPa 0,0 l/m 8,9 km/h (2 Bft) SW 0,00 h 0,0 UV-I 12,6 C 15,9 C 14,9 km/h (3 Bft)
11.10.2011 07:00 15,7 C 17,4 C 15,2 C 15,6 C 15,5 C 0,0 C 81 % 85 % 1 % 1012,5 hPa 0,0 l/m 9,2 km/h (2 Bft) W 0,00 h 0,0 UV-I 12,4 C 15,5 C 12,4 km/h (3 Bft)
11.10.2011 08:00 15,6 C 17,4 C 15,2 C 15,8 C 15,8 C 0,2 C 80 % 85 % 6 % 1012,7 hPa 0,0 l/m 8,2 km/h (2 Bft) W-SW 0,00 h 0,0 UV-I 12,3 C 15,8 C 11,3 km/h (2 Bft)
11.10.2011 09:00 16,0 C 17,4 C 15,5 C 16,3 C 16,3 C 0,4 C 79 % 84 % 9 % 1013,0 hPa 0,0 l/m 9,8 km/h (2 Bft) W-SW 0,00 h 0,0 UV-I 12,3 C 16,3 C 13,0 km/h (3 Bft)
11.10.2011 10:00 16,4 C 17,5 C 15,9 C 17,1 C 17,1 C 0,7 C 77 % 82 % 18 % 1013,0 hPa 0,0 l/m 10,3 km/h (2 Bft) SW 0,00 h 0,0 UV-I 12,4 C 17,1 C 16,3 km/h (3 Bft)
11.10.2011 11:00 16,4 C 17,5 C 16,0 C 16,5 C 16,5 C 0,1 C 76 % 80 % 3 % 1013,0 hPa 0,0 l/m 12,5 km/h (3 Bft) W-SW 0,00 h 0,0 UV-I 12,1 C 16,5 C 15,7 km/h (3 Bft)
11.10.2011 12:00 16,5 C 17,5 C 16,0 C 16,6 C 16,5 C 0,1 C 73 % 77 % 3 % 1013,0 hPa 0,0 l/m 14,0 km/h (3 Bft) SW 0,00 h 0,0 UV-I 11,6 C 16,5 C 20,4 km/h (4 Bft)
11.10.2011 13:00 16,4 C 17,5 C 15,9 C 16,4 C 16,2 C 0,0 C 73 % 77 % 1 % 1013,1 hPa 0,0 l/m 13,8 km/h (3 Bft) S 0,00 h 0,0 UV-I 11,5 C 16,2 C 16,5 km/h (3 Bft)
11.10.2011 14:00 16,2 C 17,6 C 15,8 C 16,3 C 16,0 C 0,2 C 75 % 79 % 5 % 1012,7 hPa 0,0 l/m 12,9 km/h (3 Bft) W-SW 0,00 h 0,0 UV-I 11,7 C 16,0 C 17,3 km/h (3 Bft)
11.10.2011 15:00 16,0 C 17,6 C 15,7 C 16,2 C 16,1 C 0,2 C 77 % 81 % 6 % 1012,4 hPa 0,0 l/m 13,6 km/h (3 Bft) S-SW 0,00 h 0,0 UV-I 11,9 C 16,1 C 17,8 km/h (3 Bft)
11.10.2011 16:00 15,5 C 17,6 C 15,2 C 15,3 C 14,8 C 0,0 C 79 % 83 % 0 % 1012,5 hPa 0,0 l/m 12,5 km/h (3 Bft) W-SW 0,00 h 0,0 UV-I 11,9 C 14,8 C 14,9 km/h (3 Bft)
11.10.2011 17:00 15,1 C 17,7 C 14,8 C 14,9 C 14,1 C 0,0 C 81 % 85 % 0 % 1012,2 hPa 0,7 l/m 12,0 km/h (2 Bft) W-SW 0,00 h 0,0 UV-I 11,9 C 14,1 C 15,2 km/h (3 Bft)
11.10.2011 18:00 15,2 C 17,8 C 14,9 C 15,1 C 14,8 C 0,0 C 80 % 84 % 0 % 1012,0 hPa 0,0 l/m 11,0 km/h (2 Bft) SW 0,00 h 0,0 UV-I 11,8 C 14,8 C 14,6 km/h (3 Bft)
11.10.2011 19:00 14,9 C 17,8 C 14,7 C 14,7 C 14,4 C 0,0 C 82 % 85 % 0 % 1012,1 hPa 0,0 l/m 11,7 km/h (2 Bft) SW 0,00 h 0,0 UV-I 11,8 C 14,4 C 15,3 km/h (3 Bft)
11.10.2011 20:00 14,5 C 17,9 C 14,3 C 14,3 C 13,5 C 0,0 C 85 % 87 % 0 % 1012,0 hPa 0,0 l/m 10,6 km/h (2 Bft) W-SW 0,00 h 0,0 UV-I 11,9 C 13,5 C 15,4 km/h (3 Bft)
11.10.2011 21:00 14,4 C 17,9 C 14,2 C 14,4 C 14,2 C 0,0 C 85 % 88 % 0 % 1011,6 hPa 0,0 l/m 8,1 km/h (2 Bft) W-SW 0,00 h 0,0 UV-I 11,9 C 14,2 C 8,5 km/h (2 Bft)
11.10.2011 22:00 14,8 C 17,8 C 14,6 C 14,8 C 14,5 C 0,0 C 83 % 87 % 0 % 1011,8 hPa 0,0 l/m 9,7 km/h (2 Bft) SW 0,00 h 0,0 UV-I 11,9 C 14,5 C 14,4 km/h (3 Bft)
11.10.2011 23:00 14,1 C 18,2 C 13,7 C 13,9 C 13,6 C 0,0 C 85 % 89 % 0 % 1012,5 hPa 4,8 l/m 4,1 km/h (1 Bft) W-SW 0,00 h 0,0 UV-I 11,6 C 13,6 C 5,6 km/h (1 Bft)
12.10.2011 00:00 11,5 C 18,3 C 11,2 C 11,3 C 10,9 C 0,0 C 88 % 93 % 0 % 1013,2 hPa 3,4 l/m 4,1 km/h (1 Bft) S 0,00 h 0,0 UV-I 9,6 C 10,9 C 6,6 km/h (2 Bft)
12.10.2011 01:00 9,8 C 18,1 C 9,5 C 9,5 C 8,9 C 0,0 C 88 % 94 % 0 % 1014,3 hPa 2,1 l/m 5,1 km/h (1 Bft) SW 0,00 h 0,0 UV-I 7,9 C 8,5 C 7,8 km/h (2 Bft)
12.10.2011 02:00 9,2 C 18,0 C 9,2 C 9,0 C 8,8 C 0,0 C 90 % 94 % 0 % 1014,9 hPa 0,7 l/m 3,6 km/h (1 Bft) SW 0,00 h 0,0 UV-I 7,5 C 8,8 C 3,5 km/h (1 Bft)
12.10.2011 03:00 9,2 C 17,9 C 9,5 C 9,2 C 9,2 C 0,0 C 91 % 94 % 0 % 1015,3 hPa 1,4 l/m 1,9 km/h (1 Bft) SW 0,00 h 0,0 UV-I 7,8 C 9,1 C 3,6 km/h (1 Bft)
12.10.2011 04:00 9,4 C 17,7 C 9,5 C 9,1 C 8,6 C 0,0 C 91 % 95 % 0 % 1015,0 hPa 1,4 l/m 5,9 km/h (2 Bft) W-SW 0,00 h 0,0 UV-I 8,0 C 8,0 C 6,6 km/h (2 Bft)
12.10.2011 05:00 9,1 C 17,6 C 9,2 C 9,0 C 8,8 C 0,0 C 91 % 95 % 0 % 1015,1 hPa 1,4 l/m 4,5 km/h (1 Bft) W 0,00 h 0,0 UV-I 7,8 C 8,7 C 5,9 km/h (2 Bft)
12.10.2011 06:00 9,1 C 17,5 C 9,2 C 8,9 C 8,6 C 0,0 C 92 % 95 % 0 % 1015,3 hPa 2,7 l/m 5,3 km/h (1 Bft) SW 0,00 h 0,0 UV-I 7,8 C 8,2 C 6,9 km/h (2 Bft)
12.10.2011 07:00 8,9 C 17,4 C 9,1 C 8,8 C 8,5 C 0,0 C 92 % 95 % 0 % 1015,2 hPa 1,4 l/m 5,1 km/h (1 Bft) W 0,00 h 0,0 UV-I 7,7 C 8,0 C 5,6 km/h (1 Bft)
12.10.2011 08:00 9,0 C 17,3 C 9,2 C 9,0 C 8,9 C 0,0 C 92 % 95 % 0 % 1015,3 hPa 0,7 l/m 4,6 km/h (1 Bft) W-SW 0,00 h 0,0 UV-I 7,8 C 8,6 C 7,5 km/h (2 Bft)
12.10.2011 09:00 9,4 C 17,2 C 9,5 C 9,3 C 9,0 C 0,0 C 92 % 95 % 0 % 1016,0 hPa 0,7 l/m 5,8 km/h (2 Bft) SW 0,00 h 0,0 UV-I 8,1 C 8,4 C 7,9 km/h (2 Bft)
12.10.2011 10:00 9,6 C 17,1 C 9,5 C 9,8 C 9,7 C 0,2 C 92 % 95 % 5 % 1016,5 hPa 0,0 l/m 4,9 km/h (1 Bft) SW 0,00 h 0,0 UV-I 8,3 C 9,4 C 6,5 km/h (2 Bft)
12.10.2011 11:00 9,8 C 17,0 C 9,6 C 10,1 C 10,1 C 0,3 C 91 % 95 % 7 % 1016,7 hPa 0,7 l/m 3,9 km/h (1 Bft) W-SW 0,00 h 0,4 UV-I 8,4 C 10,1 C 6,1 km/h (2 Bft)
12.10.2011 12:00 9,7 C 16,9 C 9,6 C 10,2 C 10,2 C 0,5 C 91 % 95 % 13 % 1016,7 hPa 0,0 l/m 3,2 km/h (1 Bft) W-SW 0,00 h 0,4 UV-I 8,3 C 10,2 C 4,0 km/h (1 Bft)
12.10.2011 13:00 10,7 C 16,7 C 10,3 C 14,1 C 14,1 C 3,4 C 90 % 95 % 77 % 1016,7 hPa 0,0 l/m 4,6 km/h (1 Bft) SW 0,58 h 0,3 UV-I 9,1 C 14,1 C 6,2 km/h (2 Bft)
12.10.2011 14:00 11,7 C 16,5 C 10,9 C 14,4 C 14,4 C 2,7 C 83 % 95 % 68 % 1016,6 hPa 0,0 l/m 6,5 km/h (2 Bft) W-SW 0,33 h 0,2 UV-I 8,9 C 14,4 C 9,2 km/h (2 Bft)
12.10.2011 15:00 11,5 C 16,5 C 11,1 C 12,3 C 12,3 C 0,8 C 83 % 94 % 21 % 1016,4 hPa 0,0 l/m 5,9 km/h (2 Bft) SW 0,00 h 0,1 UV-I 8,7 C 12,3 C 7,3 km/h (2 Bft)
12.10.2011 16:00 11,1 C 16,5 C 10,9 C 11,4 C 11,4 C 0,3 C 84 % 94 % 7 % 1016,1 hPa 0,0 l/m 5,5 km/h (1 Bft) SW 0,00 h 0,0 UV-I 8,5 C 11,4 C 7,4 km/h (2 Bft)
12.10.2011 17:00 10,6 C 16,5 C 10,6 C 10,5 C 10,3 C 0,0 C 86 % 94 % 0 % 1016,7 hPa 0,0 l/m 4,7 km/h (1 Bft) W-SW 0,00 h 0,0 UV-I 8,3 C 10,2 C 6,5 km/h (2 Bft)
12.10.2011 18:00 10,1 C 16,5 C 10,1 C 10,0 C 9,8 C 0,0 C 87 % 93 % 0 % 1017,1 hPa 0,0 l/m 4,3 km/h (1 Bft) W-SW 0,00 h 0,0 UV-I 8,0 C 9,5 C 5,2 km/h (1 Bft)
12.10.2011 19:00 9,6 C 16,5 C 9,7 C 9,4 C 9,3 C 0,0 C 87 % 93 % 0 % 1017,7 hPa 0,0 l/m 1,9 km/h (1 Bft) W-SW 0,00 h 0,0 UV-I 7,6 C 9,2 C 1,3 km/h (1 Bft)
12.10.2011 20:00 9,1 C 16,5 C 9,5 C 9,0 C 8,9 C 0,0 C 89 % 93 % 0 % 1018,1 hPa 0,0 l/m 2,0 km/h (1 Bft) W-SW 0,00 h 0,0 UV-I 7,4 C 8,9 C 2,6 km/h (1 Bft)
12.10.2011 21:00 8,7 C 16,5 C 9,2 C 8,6 C 8,4 C 0,0 C 90 % 94 % 0 % 1018,4 hPa 0,0 l/m 0,5 km/h (0 Bft) N 0,00 h 0,0 UV-I 7,1 C 8,4 C 0,6 km/h (0 Bft)
12.10.2011 22:00 8,2 C 16,6 C 9,0 C 8,1 C 8,0 C 0,0 C 91 % 94 % 0 % 1019,0 hPa 0,0 l/m 0,4 km/h (0 Bft) N 0,00 h 0,0 UV-I 6,8 C 8,0 C 0,7 km/h (0 Bft)
12.10.2011 23:00 7,7 C 16,6 C 8,5 C 7,6 C 7,4 C 0,0 C 91 % 94 % 0 % 1019,3 hPa 0,0 l/m 0,4 km/h (0 Bft) N 0,00 h 0,0 UV-I 6,3 C 7,4 C 0,2 km/h (0 Bft)
13.10.2011 00:00 7,2 C 16,6 C 8,1 C 7,0 C 6,8 C 0,0 C 91 % 94 % 0 % 1019,6 hPa 0,0 l/m 0,4 km/h (0 Bft) N 0,00 h 0,0 UV-I 5,8 C 6,8 C 0,6 km/h (0 Bft)
13.10.2011 01:00 6,6 C 16,6 C 7,5 C 6,5 C 6,4 C 0,0 C 92 % 94 % 0 % 1019,8 hPa 0,0 l/m 0,0 km/h (0 Bft) N 0,00 h 0,0 UV-I 5,3 C 6,4 C 0,0 km/h (0 Bft)
13.10.2011 02:00 6,6 C 16,5 C 7,6 C 6,6 C 6,4 C 0,0 C 92 % 94 % 0 % 1020,3 hPa 0,0 l/m 0,6 km/h (0 Bft) S-SW 0,00 h 0,0 UV-I 5,4 C 6,4 C 1,3 km/h (1 Bft)
13.10.2011 03:00 6,4 C 16,4 C 7,1 C 6,2 C 5,9 C 0,0 C 92 % 94 % 0 % 1020,5 hPa 0,0 l/m 1,1 km/h (1 Bft) SW 0,00 h 0,0 UV-I 5,2 C 5,9 C 1,5 km/h (1 Bft)
13.10.2011 04:00 5,7 C 16,3 C 6,6 C 5,5 C 5,2 C 0,0 C 92 % 94 % 0 % 1021,1 hPa 0,0 l/m 0,0 km/h (0 Bft) N 0,00 h 0,0 UV-I 4,5 C 5,2 C 0,0 km/h (0 Bft)
13.10.2011 05:00 5,7 C 16,2 C 6,7 C 5,7 C 5,7 C 0,0 C 93 % 94 % 0 % 1021,9 hPa 0,0 l/m 0,3 km/h (0 Bft) W-SW 0,00 h 0,0 UV-I 4,6 C 5,7 C 0,8 km/h (0 Bft)
13.10.2011 06:00 5,8 C 16,1 C 6,6 C 5,7 C 5,5 C 0,0 C 93 % 94 % 0 % 1022,7 hPa 0,0 l/m 0,3 km/h (0 Bft) N 0,00 h 0,0 UV-I 4,8 C 5,5 C 0,4 km/h (0 Bft)
13.10.2011 07:00 5,0 C 16,2 C 5,8 C 4,7 C 4,1 C 0,0 C 93 % 94 % 0 % 1022,8 hPa 0,0 l/m 0,0 km/h (0 Bft) N 0,00 h 0,0 UV-I 4,0 C 4,1 C 0,0 km/h (0 Bft)
13.10.2011 08:00 4,8 C 16,0 C 5,9 C 5,1 C 5,0 C 0,4 C 93 % 94 % 10 % 1023,6 hPa 0,0 l/m 0,0 km/h (0 Bft) N 0,00 h 0,0 UV-I 3,7 C 5,0 C 0,1 km/h (0 Bft)
13.10.2011 09:00 6,4 C 15,8 C 7,4 C 7,6 C 7,6 C 1,2 C 94 % 94 % 32 % 1024,4 hPa 0,0 l/m 0,7 km/h (0 Bft) O-NO 0,00 h 0,0 UV-I 5,4 C 7,6 C 1,4 km/h (1 Bft)
13.10.2011 10:00 7,9 C 15,6 C 8,7 C 9,6 C 9,6 C 1,7 C 94 % 94 % 45 % 1025,2 hPa 0,0 l/m 1,8 km/h (1 Bft) S-SW 0,00 h 0,0 UV-I 7,0 C 9,6 C 2,9 km/h (1 Bft)
13.10.2011 11:00 9,3 C 15,4 C 9,5 C 10,9 C 10,9 C 1,6 C 92 % 91 % 42 % 1025,6 hPa 0,0 l/m 2,3 km/h (1 Bft) W-SW 0,00 h 0,0 UV-I 8,0 C 10,9 C 3,3 km/h (1 Bft)
13.10.2011 12:00 10,3 C 15,4 C 10,1 C 12,8 C 12,8 C 2,5 C 83 % 85 % 61 % 1025,9 hPa 0,0 l/m 4,8 km/h (1 Bft) SW 0,25 h 0,0 UV-I 7,5 C 12,8 C 7,0 km/h (2 Bft)
13.10.2011 13:00 10,6 C 15,4 C 10,3 C 13,3 C 13,3 C 2,7 C 75 % 79 % 67 % 1026,1 hPa 0,0 l/m 3,2 km/h (1 Bft) W-SW 0,33 h 0,0 UV-I 6,5 C 13,3 C 4,4 km/h (1 Bft)
13.10.2011 14:00 11,5 C 15,4 C 11,1 C 15,2 C 15,2 C 3,8 C 70 % 74 % 77 % 1026,2 hPa 0,0 l/m 3,6 km/h (1 Bft) S-SW 0,50 h 0,1 UV-I 6,2 C 15,2 C 4,4 km/h (1 Bft)
13.10.2011 15:00 12,6 C 15,4 C 14,3 C 16,0 C 16,0 C 3,4 C 67 % 66 % 89 % 1026,4 hPa 0,0 l/m 3,6 km/h (1 Bft) W-SW 0,75 h 0,1 UV-I 6,6 C 16,0 C 5,3 km/h (1 Bft)
13.10.2011 16:00 13,0 C 15,4 C 13,2 C 16,7 C 16,7 C 3,6 C 64 % 66 % 93 % 1026,5 hPa 0,0 l/m 2,5 km/h (1 Bft) S-SW 1,00 h 0,0 UV-I 6,4 C 16,7 C 3,4 km/h (1 Bft)
13.10.2011 17:00 11,3 C 15,4 C 11,3 C 14,6 C 14,6 C 3,3 C 67 % 69 % 86 % 1026,9 hPa 0,0 l/m 0,8 km/h (0 Bft) W 1,00 h 0,0 UV-I 5,3 C 14,6 C 0,8 km/h (0 Bft)
13.10.2011 18:00 9,2 C 15,5 C 9,6 C 9,1 C 8,6 C 0,3 C 73 % 76 % 6 % 1027,6 hPa 0,0 l/m 0,0 km/h (0 Bft) N 0,25 h 0,0 UV-I 4,5 C 8,6 C 0,0 km/h (0 Bft)
13.10.2011 19:00 6,6 C 15,6 C 7,6 C 6,1 C 4,9 C 0,0 C 82 % 83 % 0 % 1028,0 hPa 0,0 l/m 0,0 km/h (0 Bft) N 0,00 h 0,0 UV-I 3,7 C 4,9 C 0,0 km/h (0 Bft)
13.10.2011 20:00 5,3 C 15,7 C 6,6 C 5,0 C 4,4 C 0,0 C 87 % 87 % 0 % 1028,4 hPa 0,0 l/m 0,0 km/h (0 Bft) N 0,00 h 0,0 UV-I 3,3 C 4,4 C 0,0 km/h (0 Bft)
13.10.2011 21:00 4,9 C 15,7 C 6,4 C 4,8 C 4,4 C 0,0 C 89 % 88 % 0 % 1028,8 hPa 0,0 l/m 0,0 km/h (0 Bft) N 0,00 h 0,0 UV-I 3,3 C 4,4 C 0,0 km/h (0 Bft)
13.10.2011 22:00 5,1 C 15,8 C 6,2 C 5,1 C 4,9 C 0,0 C 91 % 89 % 0 % 1029,2 hPa 0,0 l/m 0,0 km/h (0 Bft) N 0,00 h 0,0 UV-I 3,7 C 4,9 C 0,0 km/h (0 Bft)
13.10.2011 23:00 5,2 C 15,6 C 6,2 C 5,0 C 4,6 C 0,0 C 90 % 90 % 0 % 1029,4 hPa 0,0 l/m 0,0 km/h (0 Bft) N 0,00 h 0,0 UV-I 3,7 C 4,6 C 0,0 km/h (0 Bft)
14.10.2011 00:00 4,6 C 15,6 C 5,6 C 4,4 C 3,7 C 0,0 C 90 % 90 % 0 % 1029,6 hPa 0,0 l/m 0,0 km/h (0 Bft) N 0,00 h 0,0 UV-I 3,2 C 3,7 C 0,0 km/h (0 Bft)
14.10.2011 01:00 3,6 C 15,6 C 4,9 C 3,1 C 2,2 C 0,0 C 90 % 90 % 0 % 1030,1 hPa 0,0 l/m 0,0 km/h (0 Bft) N 0,00 h 0,0 UV-I 2,1 C 2,2 C 0,0 km/h (0 Bft)
14.10.2011 02:00 2,4 C 15,4 C 4,1 C 1,9 C 1,0 C 0,0 C 90 % 90 % 0 % 1030,5 hPa 0,0 l/m 0,0 km/h (0 Bft) N 0,00 h 0,0 UV-I 0,9 C 1,0 C 0,0 km/h (0 Bft)
14.10.2011 03:00 1,5 C 15,3 C 3,3 C 1,0 C 0,0 C 0,0 C 91 % 90 % 0 % 1030,1 hPa 0,0 l/m 0,0 km/h (0 Bft) N 0,00 h 0,0 UV-I 0,1 C 0,0 C 0,0 km/h (0 Bft)
14.10.2011 04:00 0,6 C 15,2 C 2,6 C 0,1 C -0,9 C 0,0 C 91 % 90 % 0 % 1030,3 hPa 0,0 l/m 0,0 km/h (0 Bft) N 0,00 h 0,0 UV-I -0,7 C -0,9 C 0,0 km/h (0 Bft)
14.10.2011 05:00 0,3 C 15,2 C 2,1 C 0,0 C -0,6 C 0,0 C 91 % 91 % 0 % 1030,6 hPa 0,0 l/m 0,0 km/h (0 Bft) N 0,00 h 0,0 UV-I -1,0 C -0,6 C 0,0 km/h (0 Bft)
14.10.2011 06:00 0,0 C 15,1 C 1,8 C -0,3 C -0,9 C 0,0 C 91 % 91 % 0 % 1031,0 hPa 0,0 l/m 0,0 km/h (0 Bft) N 0,00 h 0,0 UV-I -1,2 C -0,9 C 0,2 km/h (0 Bft)
14.10.2011 07:00 -0,3 C 14,9 C 1,4 C -0,6 C -1,1 C 0,0 C 92 % 91 % 0 % 1031,4 hPa 0,0 l/m 0,0 km/h (0 Bft) N 0,00 h 0,0 UV-I -1,4 C -1,1 C 0,0 km/h (0 Bft)
14.10.2011 08:00 0,2 C 14,7 C 1,8 C 0,4 C 0,4 C 0,3 C 93 % 91 % 7 % 1032,3 hPa 0,0 l/m 0,0 km/h (0 Bft) N 0,00 h 0,0 UV-I -0,9 C 0,4 C 0,0 km/h (0 Bft)
14.10.2011 09:00 1,2 C 14,6 C 2,4 C 2,4 C 2,4 C 1,3 C 93 % 92 % 34 % 1032,6 hPa 0,0 l/m 0,3 km/h (0 Bft) N 0,00 h 0,0 UV-I 0,2 C 2,4 C 0,8 km/h (0 Bft)
14.10.2011 10:00 2,5 C 14,5 C 3,5 C 4,6 C 4,6 C 2,1 C 93 % 92 % 55 % 1033,1 hPa 0,0 l/m 0,6 km/h (0 Bft) W-SW 0,00 h 0,0 UV-I 1,5 C 4,6 C 1,1 km/h (0 Bft)
14.10.2011 11:00 4,1 C 14,1 C 5,2 C 6,5 C 6,5 C 2,4 C 94 % 92 % 59 % 1033,6 hPa 0,0 l/m 0,8 km/h (0 Bft) SW 0,25 h 0,0 UV-I 3,3 C 6,5 C 0,9 km/h (0 Bft)
14.10.2011 12:00 6,6 C 13,9 C 7,0 C 12,5 C 12,5 C 5,9 C 88 % 86 % 98 % 1033,6 hPa 0,0 l/m 1,5 km/h (1 Bft) NO 0,83 h 0,0 UV-I 4,7 C 12,5 C 2,9 km/h (1 Bft)
14.10.2011 13:00 8,4 C 13,8 C 8,2 C 13,6 C 13,6 C 5,3 C 73 % 76 % 95 % 1033,4 hPa 0,0 l/m 1,9 km/h (1 Bft) O 0,92 h 0,3 UV-I 3,8 C 13,6 C 2,5 km/h (1 Bft)
14.10.2011 14:00 8,6 C 13,9 C 8,6 C 12,5 C 12,5 C 3,9 C 69 % 73 % 75 % 1033,4 hPa 0,0 l/m 1,6 km/h (1 Bft) O 0,50 h 0,1 UV-I 3,3 C 12,5 C 2,5 km/h (1 Bft)
14.10.2011 15:00 9,0 C 14,0 C 8,9 C 10,7 C 10,7 C 1,7 C 67 % 70 % 45 % 1033,2 hPa 0,0 l/m 1,3 km/h (1 Bft) O-NO 0,08 h 0,1 UV-I 3,1 C 10,7 C 1,9 km/h (1 Bft)
14.10.2011 16:00 9,3 C 14,0 C 10,5 C 12,8 C 12,8 C 3,5 C 64 % 64 % 71 % 1033,2 hPa 0,0 l/m 1,4 km/h (1 Bft) O-NO 0,58 h 0,0 UV-I 3,0 C 12,8 C 1,4 km/h (1 Bft)
14.10.2011 17:00 8,1 C 14,1 C 8,4 C 8,1 C 7,9 C 0,1 C 72 % 73 % 2 % 1033,5 hPa 0,0 l/m 0,4 km/h (0 Bft) NO 0,00 h 0,0 UV-I 3,3 C 7,9 C 0,5 km/h (0 Bft)
14.10.2011 18:00 6,2 C 14,2 C 6,9 C 5,8 C 4,8 C 0,0 C 78 % 79 % 0 % 1033,3 hPa 0,0 l/m 0,0 km/h (0 Bft) N 0,00 h 0,0 UV-I 2,7 C 4,8 C 0,0 km/h (0 Bft)
14.10.2011 19:00 4,6 C 14,3 C 5,6 C 4,1 C 3,0 C 0,0 C 85 % 84 % 0 % 1033,5 hPa 0,0 l/m 0,0 km/h (0 Bft) N 0,00 h 0,0 UV-I 2,3 C 3,0 C 0,0 km/h (0 Bft)
14.10.2011 20:00 3,5 C 14,4 C 4,7 C 3,1 C 2,2 C 0,0 C 87 % 87 % 0 % 1033,7 hPa 0,0 l/m 0,0 km/h (0 Bft) N 0,00 h 0,0 UV-I 1,6 C 2,2 C 0,0 km/h (0 Bft)
14.10.2011 21:00 2,6 C 14,4 C 3,9 C 2,1 C 1,2 C 0,0 C 89 % 88 % 0 % 1033,7 hPa 0,0 l/m 0,0 km/h (0 Bft) N 0,00 h 0,0 UV-I 0,9 C 1,2 C 0,0 km/h (0 Bft)
14.10.2011 22:00 1,7 C 14,3 C 3,2 C 1,2 C 0,3 C 0,0 C 89 % 88 % 0 % 1033,7 hPa 0,0 l/m 0,0 km/h (0 Bft) N 0,00 h 0,0 UV-I 0,2 C 0,3 C 0,0 km/h (0 Bft)
14.10.2011 23:00 0,9 C 14,3 C 2,7 C 0,4 C -0,5 C 0,0 C 90 % 89 % 0 % 1034,3 hPa 0,0 l/m 0,0 km/h (0 Bft) N 0,00 h 0,0 UV-I -0,6 C -0,5 C 0,0 km/h (0 Bft)
15.10.2011 00:00 0,6 C 14,2 C 2,1 C 0,1 C -0,8 C 0,0 C 90 % 89 % 0 % 1034,2 hPa 0,0 l/m 0,0 km/h (0 Bft) N 0,00 h 0,0 UV-I -0,9 C -0,8 C 0,0 km/h (0 Bft)
15.10.2011 01:00 -0,1 C 14,1 C 1,5 C -0,6 C -1,5 C 0,0 C 91 % 89 % 0 % 1033,8 hPa 0,0 l/m 0,0 km/h (0 Bft) N 0,00 h 0,0 UV-I -1,4 C -1,5 C 0,0 km/h (0 Bft)
15.10.2011 02:00 -0,8 C 14,0 C 1,0 C -1,4 C -2,4 C 0,0 C 90 % 89 % 0 % 1033,7 hPa 0,0 l/m 0,0 km/h (0 Bft) N 0,00 h 0,0 UV-I -2,2 C -2,4 C 0,0 km/h (0 Bft)
15.10.2011 03:00 -1,0 C 13,9 C 0,7 C -1,5 C -2,4 C 0,0 C 91 % 89 % 0 % 1033,3 hPa 0,0 l/m 0,0 km/h (0 Bft) N 0,00 h 0,0 UV-I -2,3 C -2,4 C 0,0 km/h (0 Bft)
15.10.2011 04:00 -1,4 C 13,7 C 0,6 C -1,9 C -2,8 C 0,0 C 91 % 89 % 0 % 1033,5 hPa 0,0 l/m 0,0 km/h (0 Bft) N 0,00 h 0,0 UV-I -2,7 C -2,8 C 0,0 km/h (0 Bft)
15.10.2011 05:00 -1,7 C 13,7 C 0,3 C -2,0 C -2,7 C 0,0 C 91 % 89 % 0 % 1033,4 hPa 0,0 l/m 0,0 km/h (0 Bft) N 0,00 h 0,0 UV-I -2,9 C -2,7 C 0,0 km/h (0 Bft)
15.10.2011 06:00 -1,9 C 13,5 C -0,1 C -2,3 C -3,1 C 0,0 C 91 % 89 % 0 % 1033,1 hPa 0,0 l/m 0,0 km/h (0 Bft) N 0,00 h 0,0 UV-I -3,1 C -3,1 C 0,0 km/h (0 Bft)
15.10.2011 07:00 -2,2 C 13,3 C -0,2 C -2,6 C -3,4 C 0,0 C 91 % 90 % 0 % 1032,9 hPa 0,0 l/m 0,0 km/h (0 Bft) N 0,00 h 0,0 UV-I -3,4 C -3,4 C 0,0 km/h (0 Bft)
15.10.2011 08:00 -2,1 C 13,2 C -0,0 C -2,3 C -2,6 C 0,0 C 92 % 90 % 0 % 1033,0 hPa 0,0 l/m 0,0 km/h (0 Bft) N 0,00 h 0,0 UV-I -3,2 C -2,6 C 0,0 km/h (0 Bft)
15.10.2011 09:00 -1,1 C 13,0 C 1,1 C -0,7 C -0,7 C 0,4 C 93 % 91 % 9 % 1032,8 hPa 0,0 l/m 0,0 km/h (0 Bft) N 0,00 h 0,0 UV-I -2,1 C -0,7 C 0,0 km/h (0 Bft)
15.10.2011 10:00 1,5 C 12,8 C 2,9 C 2,2 C 2,2 C 0,7 C 94 % 91 % 20 % 1032,8 hPa 0,0 l/m 0,7 km/h (0 Bft) O-NO 0,00 h 0,0 UV-I 0,6 C 2,2 C 1,3 km/h (1 Bft)
15.10.2011 11:00 6,5 C 12,7 C 6,2 C 7,1 C 7,1 C 0,6 C 76 % 82 % 16 % 1032,3 hPa 0,0 l/m 4,9 km/h (1 Bft) O-NO 0,00 h 0,0 UV-I 2,6 C 6,5 C 7,8 km/h (2 Bft)
15.10.2011 12:00 8,6 C 12,7 C 7,9 C 12,5 C 12,5 C 3,8 C 65 % 73 % 77 % 1031,9 hPa 0,0 l/m 3,8 km/h (1 Bft) O-NO 0,58 h 0,0 UV-I 2,5 C 12,4 C 5,5 km/h (1 Bft)
15.10.2011 13:00 9,8 C 12,8 C 9,1 C 14,7 C 14,7 C 4,9 C 61 % 68 % 100 % 1031,5 hPa 0,0 l/m 4,2 km/h (1 Bft) O-NO 1,00 h 0,4 UV-I 2,6 C 14,7 C 4,7 km/h (1 Bft)
15.10.2011 14:00 10,6 C 12,8 C 10,3 C 15,3 C 15,3 C 4,7 C 60 % 65 % 100 % 1031,2 hPa 0,0 l/m 4,5 km/h (1 Bft) O-NO 1,00 h 0,0 UV-I 3,2 C 15,3 C 4,5 km/h (1 Bft)
15.10.2011 15:00 11,0 C 13,0 C 14,7 C 15,5 C 15,5 C 4,5 C 61 % 54 % 100 % 1030,7 hPa 0,0 l/m 3,9 km/h (1 Bft) O-NO 1,00 h 0,1 UV-I 3,9 C 15,5 C 4,6 km/h (1 Bft)
15.10.2011 16:00 11,0 C 13,1 C 12,6 C 14,3 C 14,3 C 3,3 C 65 % 61 % 86 % 1030,0 hPa 0,0 l/m 4,9 km/h (1 Bft) O 1,00 h 0,0 UV-I 4,6 C 14,3 C 5,7 km/h (1 Bft)
15.10.2011 17:00 10,4 C 13,2 C 10,6 C 12,4 C 12,4 C 2,0 C 66 % 68 % 52 % 1030,1 hPa 0,0 l/m 3,7 km/h (1 Bft) O-NO 1,00 h 0,0 UV-I 4,3 C 12,4 C 3,7 km/h (1 Bft)
15.10.2011 18:00 8,4 C 13,4 C 8,6 C 8,2 C 7,6 C 0,1 C 71 % 72 % 2 % 1030,2 hPa 0,0 l/m 0,8 km/h (0 Bft) O-NO 0,08 h 0,0 UV-I 3,4 C 7,6 C 0,6 km/h (0 Bft)
15.10.2011 19:00 6,3 C 13,5 C 6,6 C 6,0 C 5,3 C 0,0 C 78 % 79 % 0 % 1030,0 hPa 0,0 l/m 0,8 km/h (0 Bft) O-NO 0,00 h 0,0 UV-I 2,7 C 5,3 C 1,4 km/h (1 Bft)
15.10.2011 20:00 4,6 C 13,6 C 5,5 C 4,2 C 3,2 C 0,0 C 82 % 83 % 0 % 1030,5 hPa 0,0 l/m 0,1 km/h (0 Bft) N 0,00 h 0,0 UV-I 1,8 C 3,2 C 0,0 km/h (0 Bft)
15.10.2011 21:00 3,1 C 13,6 C 4,4 C 2,5 C 1,5 C 0,0 C 85 % 85 % 0 % 1030,7 hPa 0,0 l/m 0,0 km/h (0 Bft) N 0,00 h 0,0 UV-I 0,8 C 1,5 C 0,0 km/h (0 Bft)
15.10.2011 22:00 2,1 C 13,7 C 3,5 C 1,6 C 0,8 C 0,0 C 87 % 87 % 0 % 1030,8 hPa 0,0 l/m 0,1 km/h (0 Bft) N 0,00 h 0,0 UV-I 0,2 C 0,8 C 0,0 km/h (0 Bft)
15.10.2011 23:00 1,4 C 13,6 C 2,9 C 0,9 C -0,1 C 0,0 C 88 % 87 % 0 % 1030,5 hPa 0,0 l/m 0,0 km/h (0 Bft) N 0,00 h 0,0 UV-I -0,4 C -0,1 C 0,0 km/h (0 Bft)
16.10.2011 00:00 0,6 C 13,5 C 2,3 C 0,1 C -0,8 C 0,0 C 89 % 88 % 0 % 1030,5 hPa 0,0 l/m 0,0 km/h (0 Bft) N 0,00 h 0,0 UV-I -1,0 C -0,8 C 0,0 km/h (0 Bft)
16.10.2011 01:00 0,2 C 13,5 C 1,7 C -0,2 C -1,0 C 0,0 C 90 % 88 % 0 % 1030,1 hPa 0,0 l/m 0,1 km/h (0 Bft) N 0,00 h 0,0 UV-I -1,3 C -1,0 C 0,0 km/h (0 Bft)
16.10.2011 02:00 -0,1 C 13,4 C 1,3 C -0,5 C -1,3 C 0,0 C 90 % 89 % 0 % 1030,1 hPa 0,0 l/m 0,0 km/h (0 Bft) N 0,00 h 0,0 UV-I -1,5 C -1,3 C 0,0 km/h (0 Bft)
16.10.2011 03:00 -0,5 C 13,3 C 1,1 C -0,9 C -1,8 C 0,0 C 90 % 89 % 0 % 1030,1 hPa 0,0 l/m 0,0 km/h (0 Bft) N 0,00 h 0,0 UV-I -1,9 C -1,8 C 0,1 km/h (0 Bft)
16.10.2011 04:00 -0,5 C 13,2 C 0,9 C -0,8 C -1,4 C 0,0 C 91 % 90 % 0 % 1029,1 hPa 0,0 l/m 0,1 km/h (0 Bft) N 0,00 h 0,0 UV-I -1,8 C -1,4 C 0,2 km/h (0 Bft)
16.10.2011 05:00 -0,6 C 13,0 C 0,8 C -1,0 C -1,6 C 0,0 C 91 % 89 % 0 % 1028,8 hPa 0,0 l/m 0,0 km/h (0 Bft) N 0,00 h 0,0 UV-I -1,9 C -1,6 C 0,4 km/h (0 Bft)
16.10.2011 06:00 -0,6 C 12,9 C 0,8 C -0,8 C -1,3 C 0,0 C 91 % 90 % 0 % 1028,8 hPa 0,0 l/m 0,1 km/h (0 Bft) N 0,00 h 0,0 UV-I -1,8 C -1,3 C 0,3 km/h (0 Bft)
16.10.2011 07:00 -0,9 C 12,9 C 0,8 C -1,2 C -1,8 C 0,0 C 92 % 90 % 0 % 1028,4 hPa 0,0 l/m 0,0 km/h (0 Bft) N 0,00 h 0,0 UV-I -2,1 C -1,8 C 0,0 km/h (0 Bft)
16.10.2011 08:00 -0,3 C 12,7 C 1,1 C -0,3 C -0,4 C 0,0 C 92 % 90 % 0 % 1028,3 hPa 0,0 l/m 0,1 km/h (0 Bft) N 0,00 h 0,0 UV-I -1,4 C -0,4 C 0,0 km/h (0 Bft)
16.10.2011 09:00 0,8 C 12,6 C 2,0 C 1,2 C 1,2 C 0,5 C 93 % 91 % 13 % 1029,2 hPa 0,0 l/m 0,2 km/h (0 Bft) N 0,00 h 0,0 UV-I -0,3 C 1,2 C 0,2 km/h (0 Bft)
16.10.2011 10:00 4,4 C 12,4 C 4,7 C 6,2 C 6,2 C 1,8 C 93 % 92 % 46 % 1029,0 hPa 0,0 l/m 1,0 km/h (0 Bft) O-NO 0,00 h 0,0 UV-I 3,4 C 6,2 C 2,2 km/h (1 Bft)
16.10.2011 11:00 9,0 C 12,3 C 8,0 C 10,2 C 10,2 C 1,2 C 75 % 83 % 31 % 1028,5 hPa 0,0 l/m 3,8 km/h (1 Bft) O-NO 0,00 h 0,0 UV-I 4,6 C 10,2 C 6,4 km/h (2 Bft)
16.10.2011 12:00 11,6 C 12,3 C 10,4 C 15,1 C 15,1 C 3,5 C 59 % 70 % 76 % 1028,6 hPa 0,0 l/m 4,6 km/h (1 Bft) O-NO 0,58 h 0,0 UV-I 3,8 C 15,1 C 8,8 km/h (2 Bft)
16.10.2011 13:00 12,7 C 12,5 C 11,5 C 17,9 C 17,9 C 5,2 C 54 % 64 % 100 % 1028,3 hPa 0,0 l/m 3,9 km/h (1 Bft) O-NO 1,00 h 0,5 UV-I 3,7 C 17,9 C 5,3 km/h (1 Bft)
16.10.2011 14:00 13,3 C 12,7 C 12,4 C 18,0 C 18,0 C 4,7 C 52 % 61 % 100 % 1027,9 hPa 0,0 l/m 4,2 km/h (1 Bft) O-NO 1,00 h 0,0 UV-I 3,7 C 18,0 C 5,9 km/h (2 Bft)
16.10.2011 15:00 13,8 C 12,8 C 17,1 C 18,0 C 18,0 C 4,2 C 51 % 50 % 98 % 1027,2 hPa 0,0 l/m 4,5 km/h (1 Bft) O-NO 1,00 h 0,0 UV-I 3,9 C 18,0 C 3,9 km/h (1 Bft)
16.10.2011 16:00 13,7 C 13,0 C 14,9 C 17,3 C 17,3 C 3,6 C 51 % 52 % 93 % 1027,0 hPa 0,0 l/m 3,8 km/h (1 Bft) O-NO 1,00 h 0,0 UV-I 3,8 C 17,3 C 4,9 km/h (1 Bft)
16.10.2011 17:00 12,4 C 13,1 C 12,0 C 14,7 C 14,7 C 2,3 C 54 % 60 % 60 % 1026,9 hPa 0,0 l/m 3,7 km/h (1 Bft) O-NO 1,00 h 0,0 UV-I 3,5 C 14,7 C 4,5 km/h (1 Bft)
16.10.2011 18:00 10,5 C 13,3 C 10,0 C 10,3 C 9,8 C 0,1 C 62 % 68 % 3 % 1027,1 hPa 0,0 l/m 1,5 km/h (1 Bft) O-NO 0,08 h 0,0 UV-I 3,5 C 9,8 C 2,1 km/h (1 Bft)
16.10.2011 19:00 8,6 C 13,4 C 8,6 C 8,2 C 7,3 C 0,0 C 67 % 73 % 0 % 1026,6 hPa 0,0 l/m 0,4 km/h (0 Bft) N 0,00 h 0,0 UV-I 2,9 C 7,3 C 0,6 km/h (0 Bft)
16.10.2011 20:00 7,1 C 13,4 C 7,5 C 6,7 C 6,0 C 0,0 C 72 % 76 % 0 % 1026,7 hPa 0,0 l/m 0,1 km/h (0 Bft) N 0,00 h 0,0 UV-I 2,4 C 6,0 C 0,0 km/h (0 Bft)
16.10.2011 21:00 5,6 C 13,5 C 6,6 C 5,3 C 4,6 C 0,0 C 77 % 79 % 0 % 1026,2 hPa 0,0 l/m 0,0 km/h (0 Bft) N 0,00 h 0,0 UV-I 2,0 C 4,6 C 0,0 km/h (0 Bft)
16.10.2011 22:00 4,8 C 13,5 C 5,8 C 4,5 C 3,8 C 0,0 C 80 % 81 % 0 % 1026,1 hPa 0,0 l/m 0,0 km/h (0 Bft) N 0,00 h 0,0 UV-I 1,8 C 3,8 C 0,0 km/h (0 Bft)
16.10.2011 23:00 3,8 C 13,5 C 4,9 C 3,4 C 2,8 C 0,0 C 83 % 83 % 0 % 1026,2 hPa 0,0 l/m 0,0 km/h (0 Bft) N 0,00 h 0,0 UV-I 1,2 C 2,8 C 0,0 km/h (0 Bft)
Min-Datum _ 15.10.11 16.10.11 15.10.11 15.10.11 15.10.11 10.10.11 16.10.11 16.10.11 10.10.11 10.10.11 - 12.10.11 - - 10.10.11 15.10.11 15.10.11 10.10.11
_ Min-Zeit 07:30 11:00 07:40 07:30 07:15 00:20 15:40 15:50 00:00 17:25 - 21:40 - - 00:00 07:30 07:15 00:15
Minimum _ -2,4 C 12,3 C -0,5 C -2,8 C -3,6 C 0,0 C 50 % 46 % 0 % 1010,6 hPa - 0,0 km/h (0 Bft) - - 0,0 UV-I -3,7 C -3,6 C 0,0 km/h (0 Bft)
Max-Datum _ 10.10.11 11.10.11 16.10.11 16.10.11 16.10.11 14.10.11 13.10.11 10.10.11 12.10.11 14.10.11 11.10.11 11.10.11 - 16.10.11 16.10.11 10.10.11 16.10.11 11.10.11
_ Max-Zeit 22:30 23:20 15:45 15:00 15:00 12:45 09:20 15:45 13:35 23:00 23:25 16:00 - 13:12 13:20 22:05 15:00 12:35
Maximum _ 16,9 C 18,4 C 18,1 C 19,0 C 19,0 C 7,3 C 94 % 96 % 100 % 1034,7 hPa 4,8 l/m 16,6 km/h
W-SW (3 Bft)
- 0,20 h 1,0 UV-I 14,0 C 19,0 C 36,2 km/h
SW (5 Bft)
Durchschnitt _ 8,2 C 15,3 C 8,6 C 8,7 C 8,4 C 0,7 C 84 % 86 % 16 % 1022,8 hPa #27,5 l/m 3,3 km/h (1 Bft) W-SW #19:30 h 0,2 UV-I 5,4 C 8,4 C 4,6 km/h (1 Bft)
2011 www.wetterstation-wechselburg.de